Weather at Platform Esther Heliport

Public forecast

Using degrees Fahrenheit for public forecast. Weather courtesy of forecast.io.

Closest aviation weather report (METAR) to Platform Esther Heliport

Closest report is Los Alamitos Army Air Field, 5.3 nm (9.8 km) NE. Retrieved 2022/01/27 07:58 UTC (59 minutes ago):

KSLI 270758Z AUTO 11004KT 10SM FEW006 10/10 A3013 RMK AO2 SLP206 T00970097 402120043

Closest aviation forecast (TAF) to Platform Esther Heliport

Closest forecast is Los Alamitos Army Air Field, 5.3 nm (9.8 km) NE. Retrieved 2022/01/27 05:06 UTC (4 hours ago):

TAF KSLI 270501Z 2705/2811 VRB06KT 9999 SKC QNH3012INS BECMG 2806/2807 VRB06KT 9999 SKC WSCONDS QNH3022INS BECMG 2808/2809 VRB06KT 9999 SKC QNH3024INS TX19/2801Z TN06/2716Z